LXGBGMME

Guest
Details From LXGB - Gibraltar
To GMME - Sale
Flight Number -
Tags Generated
Created
Modified
Stats Distance 144 nm / 267 km
Max Altitude 0 ft / 0 m
Waypoints 2
Social Downloads 1
Likes 0
Share VATSIM

Download

Looking for another format? Having issues loading an existing format? Contact us
Advertisement - Login to hide

Notes

Generated

Route

LXGB GMME

ID Type Via Altitude Latitude Longitude Leg Dist Tot Dist Heading (true) Name
O LXGB APT - 0 ft / 0 m 36.15080˚ -5.35977˚ - 0 nm - -
O GMME APT - 0 ft / 0 m 34.03799˚ -6.76139˚ 144 nm 144 nm 209° / 208° -

Altitude Profile

Advertisement - Login to hide

LXGB

Details ICAO LXGB (GIB)
Name Gibraltar
Region Gibralter
Timezone Europe/Gibraltar (UTC+1.0)
Stats Elevation 15 ft / 5 m (AMSL)
Location 36.151209° -5.349664°
Runways 1
Magnetic Variation 1.122° W

METAR

LXGB 150350Z AUTO 26013KT 9999 // FEW023/// BKN050/// 15/13 Q1019

Decode

TAF

Not found

Departure Runways

ID Width Length Bearing (true) Bearing (mag) Surface Threshold Offset Overrun Length
27 151 ft / 46 m 5,992 ft / 1,826 m 267.56° 268.68° Asphalt 367 ft / 112 m 89 ft / 27 m
9 151 ft / 46 m 5,992 ft / 1,826 m 87.54° 88.66° Asphalt 299 ft / 91 m 52 ft / 16 m

GMME

Details ICAO GMME (RBA)
Name SALE
Region Morocco
Timezone Africa/Casablanca (UTC+0.0)
Stats Elevation 276 ft / 84 m (AMSL)
Location 34.051468° -6.751519°
Runways 1
Magnetic Variation 1.550° W

METAR

GMME 150430Z 17004KT 120V220 CAVOK 09/06 Q1021 NOSIG

Decode

TAF

TAF GMME 142300Z 1500/1606 14004KT 8000 SCT015 BKN020 PROB40 TEMPO 1512/1518 24010KT 5000 RA SCT010 BKN015 BKN080 TEMPO 1518/1524 18014KT 3000 SHRA BKN010TCU BKN016

Decode

Destination Runways

ID Width Length Bearing (true) Bearing (mag) Surface Threshold Offset Overrun Length
04 148 ft / 45 m 11,503 ft / 3,506 m 31.24° 32.79° Asphalt 0 ft / 0 m 197 ft / 60 m
22 148 ft / 45 m 11,503 ft / 3,506 m 211.25° 212.80° Asphalt 0 ft / 0 m 197 ft / 60 m

Approach Navaids

Runway Type Ident Frequency Range Bearing (true) Bearing (mag) Slope Elevation
22 Localiser RS 110.90 MHz 18 nm / 33 km 211.23° 212.78° - 250 ft / 76 m (AMSL)
22 Glidescope RS 110.90 MHz 10 nm / 19 km 211.24° 212.79° 3.00° 246 ft / 75 m (AMSL)
22 DME RS 110.90 MHz 18 nm / 33 km - - - 39 ft / 12 m (AMSL)

Popular Alternatives